Time;durP1;ratioP1;P1;durP2;ratioP2;P2;SDS_P1;SDS_P2;PMS_P1;PMS_P2;Temp;Humidity;BMP_temperature;BMP_pressure;BME280_temperature;BME280_humidity;BME280_pressure;Samples;Min_cycle;Max_cycle;Signal;HPM_P1;HPM_P2
2022/07/13 00:01:15;;;;;;;2.83;0.75;;;;;16.80;94963.00;;;;7393139;19;20141;-76
2022/07/13 00:03:43;;;;;;;2.83;0.90;;;;;16.80;94958.00;;;;7392993;19;20139;-75
2022/07/13 00:06:18;;;;;;;3.42;0.85;;;;;16.80;94949.00;;;;7390373;19;20133;-76
2022/07/13 00:08:45;;;;;;;1.15;0.98;;;;;16.90;94954.00;;;;7393880;19;20236;-76
2022/07/13 00:11:13;;;;;;;1.13;0.70;;;;;16.80;94962.00;;;;7391671;19;20485;-76
2022/07/13 00:13:47;;;;;;;1.00;0.90;;;;;16.80;94955.00;;;;7393476;19;20144;-76
2022/07/13 00:16:14;;;;;;;1.05;0.73;;;;;16.70;94962.00;;;;7394087;19;20144;-76
2022/07/13 00:18:42;;;;;;;1.77;1.02;;;;;16.80;94961.00;;;;7392808;19;20129;-75
2022/07/13 00:21:16;;;;;;;2.95;0.70;;;;;16.90;94956.00;;;;7393563;19;20498;-75
2022/07/13 00:23:43;;;;;;;2.00;0.80;;;;;16.80;94961.00;;;;7393155;19;20149;-75
2022/07/13 00:26:11;;;;;;;3.13;0.98;;;;;16.70;94951.00;;;;7391752;19;20180;-76
2022/07/13 00:28:46;;;;;;;0.80;0.80;;;;;16.80;94953.00;;;;7393286;19;20626;-76
2022/07/13 00:31:20;;;;;;;0.82;0.80;;;;;16.90;94947.00;;;;7390712;19;20165;-76
2022/07/13 00:34:01;;;;;;;0.60;0.60;;;;;17.00;94953.00;;;;7391667;19;20595;-75
2022/07/13 00:36:29;;;;;;;1.25;0.75;;;;;16.90;94952.00;;;;7390849;19;20142;-75
2022/07/13 00:39:03;;;;;;;0.77;0.77;;;;;16.80;94948.00;;;;7393237;19;20128;-75
2022/07/13 00:41:30;;;;;;;1.10;0.80;;;;;16.80;94942.00;;;;7391579;19;20649;-76
2022/07/13 00:44:11;;;;;;;1.67;0.73;;;;;16.60;94939.00;;;;7392473;19;20253;-75
2022/07/13 00:46:54;;;;;;;0.70;0.70;;;;;16.50;94953.00;;;;7392378;19;20137;-75
2022/07/13 00:49:23;;;;;;;2.90;0.80;;;;;16.60;94950.00;;;;7392409;19;20121;-75
2022/07/13 00:51:57;;;;;;;1.85;0.98;;;;;16.70;94954.00;;;;7392426;19;20124;-75
2022/07/13 00:54:28;;;;;;;2.55;0.95;;;;;16.60;94945.00;;;;7390938;19;20754;-76
2022/07/13 00:56:57;;;;;;;1.10;0.80;;;;;16.60;94945.00;;;;7393612;19;20113;-76
2022/07/13 00:59:34;;;;;;;2.03;1.13;;;;;16.40;94940.00;;;;7390030;19;20144;-75
2022/07/13 01:02:02;;;;;;;2.92;0.95;;;;;16.40;94946.00;;;;7391822;19;20128;-74
2022/07/13 01:04:35;;;;;;;0.70;0.70;;;;;16.40;94931.00;;;;7390901;19;20151;-75
2022/07/13 01:07:09;;;;;;;1.13;0.82;;;;;16.40;94928.00;;;;7385449;19;20140;-73
2022/07/13 01:09:37;;;;;;;2.72;1.13;;;;;16.50;94925.00;;;;7394755;19;20939;-72
2022/07/13 01:12:05;;;;;;;1.33;0.95;;;;;16.60;94917.00;;;;7391014;19;20157;-74
2022/07/13 01:14:40;;;;;;;1.42;0.70;;;;;16.60;94922.00;;;;7387253;19;20583;-74
2022/07/13 01:17:13;;;;;;;1.77;1.00;;;;;17.00;94923.00;;;;7390207;19;20137;-73
2022/07/13 01:19:42;;;;;;;0.70;0.70;;;;;17.00;94923.00;;;;7389370;19;20178;-74
2022/07/13 01:22:21;;;;;;;1.00;1.00;;;;;17.00;94915.00;;;;7391678;19;20487;-74
2022/07/13 01:24:49;;;;;;;0.82;0.65;;;;;17.00;94917.00;;;;7391328;19;20125;-74
2022/07/13 01:27:28;;;;;;;1.27;1.00;;;;;17.00;94914.00;;;;7389252;19;20167;-75
2022/07/13 01:29:55;;;;;;;4.32;0.70;;;;;17.00;94918.00;;;;7390349;19;20630;-74
2022/07/13 01:32:29;;;;;;;0.80;0.80;;;;;17.00;94920.00;;;;7387811;19;20520;-74
2022/07/13 01:35:03;;;;;;;1.45;0.90;;;;;17.10;94917.00;;;;7388115;19;20133;-74
2022/07/13 01:37:35;;;;;;;1.50;0.90;;;;;17.20;94917.00;;;;7388068;19;20168;-73
2022/07/13 01:40:09;;;;;;;1.42;0.80;;;;;17.20;94911.00;;;;7389113;19;20192;-74
2022/07/13 01:42:49;;;;;;;2.90;0.88;;;;;17.10;94921.00;;;;7386374;19;20137;-75
2022/07/13 01:45:23;;;;;;;0.75;0.75;;;;;17.20;94913.00;;;;7388838;19;20128;-74
2022/07/13 01:47:57;;;;;;;1.15;1.00;;;;;17.30;94911.00;;;;7390549;19;20558;-74
2022/07/13 01:50:25;;;;;;;0.60;0.60;;;;;17.20;94913.00;;;;7391443;19;20607;-74
2022/07/13 01:52:53;;;;;;;0.65;0.65;;;;;17.00;94902.00;;;;7389044;19;20129;-74
2022/07/13 01:55:27;;;;;;;1.08;0.80;;;;;17.20;94909.00;;;;7389876;19;20132;-75
2022/07/13 01:57:59;;;;;;;1.30;0.80;;;;;17.10;94902.00;;;;7391174;19;20113;-74
2022/07/13 02:00:29;;;;;;;0.70;0.70;;;;;17.30;94897.00;;;;7388847;19;20646;-74
2022/07/13 02:03:03;;;;;;;1.15;0.68;;;;;17.20;94905.00;;;;7385736;19;20732;-75
2022/07/13 02:05:31;;;;;;;3.20;0.90;;;;;17.20;94903.00;;;;7388809;19;20171;-75
2022/07/13 02:07:59;;;;;;;0.88;0.85;;;;;17.10;94896.00;;;;7388792;19;20150;-75
2022/07/13 02:10:36;;;;;;;0.75;0.63;;;;;17.40;94897.00;;;;7387976;19;20603;-74
2022/07/13 02:13:13;;;;;;;1.67;0.80;;;;;17.80;94889.00;;;;7390101;19;20129;-74
2022/07/13 02:15:50;;;;;;;2.08;0.63;;;;;17.70;94880.00;;;;7390520;19;20149;-74
2022/07/13 02:18:18;;;;;;;0.80;0.80;;;;;17.60;94885.00;;;;7389529;19;20213;-75
2022/07/13 02:20:46;;;;;;;0.60;0.60;;;;;17.70;94879.00;;;;7386920;19;20169;-77
2022/07/13 02:23:21;;;;;;;0.63;0.63;;;;;17.90;94883.00;;;;7389485;19;20140;-73
2022/07/13 02:25:48;;;;;;;0.80;0.80;;;;;18.20;94874.00;;;;7389947;19;20113;-73
2022/07/13 02:28:16;;;;;;;1.83;0.70;;;;;18.00;94869.00;;;;7388419;19;20153;-73
2022/07/13 02:31:03;;;;;;;0.80;0.80;;;;;18.00;94869.00;;;;7389178;19;20141;-72
2022/07/13 02:33:38;;;;;;;0.70;0.70;;;;;17.90;94859.00;;;;7390601;19;20117;-74
2022/07/13 02:36:12;;;;;;;1.63;0.90;;;;;17.90;94862.00;;;;7387602;19;20166;-75
2022/07/13 02:38:42;;;;;;;2.05;0.80;;;;;18.00;94860.00;;;;7388112;19;20125;-75
2022/07/13 02:41:10;;;;;;;0.82;0.82;;;;;18.30;94857.00;;;;7386474;19;20208;-75
2022/07/13 02:43:44;;;;;;;0.98;0.73;;;;;18.50;94858.00;;;;7388370;19;20133;-74
2022/07/13 02:46:11;;;;;;;1.00;0.80;;;;;18.60;94862.00;;;;7390744;19;20179;-75
2022/07/13 02:48:39;;;;;;;2.58;0.73;;;;;18.70;94854.00;;;;7398261;19;20153;-74
2022/07/13 02:51:15;;;;;;;0.88;0.75;;;;;18.90;94854.00;;;;7396152;19;20503;-74
2022/07/13 02:53:43;;;;;;;1.45;0.70;;;;;18.90;94854.00;;;;7397212;19;20172;-75
2022/07/13 02:56:10;;;;;;;0.63;0.57;;;;;18.80;94855.00;;;;7394222;19;20141;-75
2022/07/13 02:58:45;;;;;;;0.80;0.80;;;;;18.80;94851.00;;;;7396246;19;20493;-74
2022/07/13 03:01:12;;;;;;;1.02;0.93;;;;;18.70;94851.00;;;;7393530;19;20125;-75
2022/07/13 03:03:40;;;;;;;1.13;0.77;;;;;18.60;94851.00;;;;7391922;19;20499;-75
2022/07/13 03:06:14;;;;;;;0.60;0.60;;;;;18.90;94854.00;;;;7394362;19;20140;-75
2022/07/13 03:08:42;;;;;;;1.75;0.73;;;;;18.70;94857.00;;;;7393591;19;20488;-75
2022/07/13 03:11:10;;;;;;;0.60;0.60;;;;;18.50;94854.00;;;;7393464;19;20591;-74
2022/07/13 03:13:44;;;;;;;0.68;0.63;;;;;18.40;94860.00;;;;7396871;19;20132;-74
2022/07/13 03:16:11;;;;;;;0.70;0.70;;;;;18.20;94858.00;;;;7394814;19;20129;-74
2022/07/13 03:18:39;;;;;;;1.15;0.90;;;;;18.20;94855.00;;;;7395278;19;20133;-74
2022/07/13 03:21:13;;;;;;;0.93;0.70;;;;;18.10;94863.00;;;;7393240;19;20453;-75
2022/07/13 03:23:41;;;;;;;1.02;0.90;;;;;17.90;94853.00;;;;7393712;19;20587;-74
2022/07/13 03:26:08;;;;;;;0.73;0.73;;;;;17.80;94855.00;;;;7392693;19;20136;-75
2022/07/13 03:28:43;;;;;;;0.60;0.60;;;;;17.70;94849.00;;;;7394649;19;20171;-74
2022/07/13 03:31:26;;;;;;;0.95;0.80;;;;;17.80;94841.00;;;;7392219;19;20165;-74
2022/07/13 03:34:00;;;;;;;1.73;0.90;;;;;18.00;94842.00;;;;7393138;19;20615;-75
2022/07/13 03:36:28;;;;;;;3.33;0.80;;;;;18.10;94833.00;;;;7394930;19;20117;-75
2022/07/13 03:38:55;;;;;;;0.52;0.52;;;;;18.30;94836.00;;;;7393653;19;20153;-75
2022/07/13 03:41:30;;;;;;;0.80;0.80;;;;;18.40;94839.00;;;;7389724;19;20128;-75
2022/07/13 03:43:57;;;;;;;2.55;0.80;;;;;18.50;94831.00;;;;7394294;19;20946;-75
2022/07/13 03:46:25;;;;;;;0.68;0.68;;;;;18.50;94835.00;;;;7393570;19;20626;-75
2022/07/13 03:48:59;;;;;;;0.77;0.77;;;;;18.40;94840.00;;;;7392640;19;20164;-74
2022/07/13 03:51:27;;;;;;;1.30;0.73;;;;;18.30;94832.00;;;;7393114;19;20174;-75
2022/07/13 03:53:55;;;;;;;0.93;0.80;;;;;18.30;94840.00;;;;7394083;19;20595;-74
2022/07/13 03:56:29;;;;;;;0.75;0.75;;;;;18.40;94836.00;;;;7392988;19;20588;-75
2022/07/13 03:58:56;;;;;;;0.70;0.70;;;;;18.20;94838.00;;;;7393661;19;20145;-74
2022/07/13 04:01:24;;;;;;;1.10;0.80;;;;;18.20;94829.00;;;;7391879;19;20117;-74
2022/07/13 04:03:58;;;;;;;0.90;0.80;;;;;18.30;94829.00;;;;7389132;19;20141;-75
2022/07/13 04:06:26;;;;;;;0.43;0.43;;;;;18.40;94812.00;;;;7391675;19;20664;-75
2022/07/13 04:08:53;;;;;;;0.73;0.73;;;;;18.50;94805.00;;;;7394913;19;20121;-74
2022/07/13 04:11:29;;;;;;;2.20;0.90;;;;;18.60;94811.00;;;;7390640;19;20135;-75
2022/07/13 04:13:57;;;;;;;0.80;0.80;;;;;18.60;94806.00;;;;7392511;19;20133;-75
2022/07/13 04:16:25;;;;;;;1.35;0.70;;;;;18.70;94802.00;;;;7393867;19;20133;-75
2022/07/13 04:18:59;;;;;;;1.05;0.80;;;;;18.70;94798.00;;;;7392345;19;20607;-76
2022/07/13 04:21:27;;;;;;;3.25;0.77;;;;;18.70;94798.00;;;;7389888;19;20151;-75
2022/07/13 04:23:55;;;;;;;1.10;0.65;;;;;18.70;94797.00;;;;7392326;19;20610;-75
2022/07/13 04:26:29;;;;;;;0.75;0.75;;;;;18.90;94789.00;;;;7393328;19;20129;-75
2022/07/13 04:28:57;;;;;;;1.60;0.70;;;;;18.80;94798.00;;;;7392805;19;20132;-74
2022/07/13 04:31:25;;;;;;;1.38;0.75;;;;;18.80;94802.00;;;;7390799;19;20179;-74
2022/07/13 04:34:05;;;;;;;0.52;0.52;;;;;18.90;94800.00;;;;7391614;19;20137;-74
2022/07/13 04:36:33;;;;;;;0.90;0.90;;;;;19.00;94804.00;;;;7391021;19;20135;-74
2022/07/13 04:39:07;;;;;;;0.65;0.60;;;;;18.90;94797.00;;;;7392514;19;20604;-75
2022/07/13 04:41:34;;;;;;;1.33;0.73;;;;;19.10;94802.00;;;;7389320;19;20133;-74
2022/07/13 04:44:02;;;;;;;0.95;0.80;;;;;19.00;94800.00;;;;7390956;19;20117;-74
2022/07/13 04:46:38;;;;;;;1.05;0.70;;;;;19.20;94801.00;;;;7390693;19;20140;-74
2022/07/13 04:49:06;;;;;;;4.07;0.90;;;;;19.40;94799.00;;;;7391735;19;20137;-74
2022/07/13 04:51:35;;;;;;;4.53;0.80;;;;;19.50;94797.00;;;;7390957;19;20591;-73
2022/07/13 04:54:09;;;;;;;2.05;0.80;;;;;19.70;94799.00;;;;7382849;19;20151;-75
2022/07/13 04:56:37;;;;;;;2.05;0.80;;;;;19.90;94797.00;;;;7391952;19;20133;-73
2022/07/13 04:59:04;;;;;;;0.88;0.82;;;;;20.00;94811.00;;;;7393636;19;20507;-75
2022/07/13 05:01:40;;;;;;;0.98;0.80;;;;;20.30;94808.00;;;;7392305;19;20151;-74
2022/07/13 05:04:13;;;;;;;4.60;0.85;;;;;20.50;94805.00;;;;7391793;19;20506;-74
2022/07/13 05:06:48;;;;;;;1.25;0.65;;;;;20.70;94812.00;;;;7392280;19;20606;-74
2022/07/13 05:09:17;;;;;;;2.38;0.80;;;;;20.90;94808.00;;;;7395234;19;20495;-73
2022/07/13 05:11:44;;;;;;;2.22;0.70;;;;;21.00;94814.00;;;;7393485;19;20145;-74
2022/07/13 05:14:21;;;;;;;10.98;1.08;;;;;21.10;94813.00;;;;7392567;19;20152;-72
2022/07/13 05:16:48;;;;;;;0.90;0.90;;;;;21.40;94809.00;;;;7392410;19;20163;-73
2022/07/13 05:19:16;;;;;;;1.00;0.75;;;;;21.30;94814.00;;;;7392547;19;20133;-75
2022/07/13 05:21:50;;;;;;;3.47;0.80;;;;;21.20;94815.00;;;;7392041;19;20148;-75
2022/07/13 05:24:18;;;;;;;0.73;0.70;;;;;21.20;94808.00;;;;7390087;19;20611;-76
2022/07/13 05:26:45;;;;;;;0.65;0.65;;;;;21.10;94804.00;;;;7391319;19;20141;-75
2022/07/13 05:29:35;;;;;;;3.25;0.75;;;;;21.40;94804.00;;;;7391819;19;20574;-76
2022/07/13 05:32:09;;;;;;;0.98;0.70;;;;;21.50;94807.00;;;;7393210;19;20159;-75
2022/07/13 05:34:44;;;;;;;0.63;0.63;;;;;21.50;94807.00;;;;7390766;19;20630;-76
2022/07/13 05:37:15;;;;;;;4.10;0.90;;;;;21.80;94805.00;;;;7394118;19;20137;-75
2022/07/13 05:39:46;;;;;;;3.00;0.90;;;;;21.80;94807.00;;;;7394288;19;20604;-75
2022/07/13 05:42:21;;;;;;;2.15;0.77;;;;;21.80;94804.00;;;;7387662;19;20151;-76
2022/07/13 05:44:49;;;;;;;1.63;0.82;;;;;21.90;94813.00;;;;7384115;19;20155;-76
2022/07/13 05:47:16;;;;;;;2.05;0.80;;;;;21.90;94817.00;;;;7393308;19;20614;-75
2022/07/13 05:49:51;;;;;;;3.10;0.90;;;;;22.00;94821.00;;;;7391296;19;20160;-75
2022/07/13 05:52:21;;;;;;;0.85;0.82;;;;;22.10;94824.00;;;;7388524;19;20158;-75
2022/07/13 05:54:49;;;;;;;0.75;0.75;;;;;22.10;94819.00;;;;7391336;19;20125;-74
2022/07/13 05:57:31;;;;;;;1.88;0.63;;;;;22.10;94830.00;;;;7392872;19;20133;-76
2022/07/13 05:59:58;;;;;;;4.30;0.70;;;;;22.00;94823.00;;;;7391007;19;20148;-75
2022/07/13 06:02:33;;;;;;;1.63;0.80;;;;;21.90;94827.00;;;;7385109;19;20124;-75
2022/07/13 06:05:00;;;;;;;2.15;0.80;;;;;22.00;94829.00;;;;7390183;19;20460;-75
2022/07/13 06:07:28;;;;;;;3.42;1.10;;;;;22.10;94822.00;;;;7388904;19;20219;-75
2022/07/13 06:10:03;;;;;;;6.90;0.80;;;;;22.30;94834.00;;;;7391258;19;20139;-75
2022/07/13 06:12:31;;;;;;;0.63;0.63;;;;;22.20;94829.00;;;;7384840;19;20212;-75
2022/07/13 06:14:59;;;;;;;1.10;0.82;;;;;22.30;94824.00;;;;7390585;19;20133;-76
2022/07/13 06:17:33;;;;;;;2.03;1.05;;;;;22.40;94825.00;;;;7392294;19;20155;-76
2022/07/13 06:20:00;;;;;;;1.90;1.02;;;;;22.50;94819.00;;;;7395053;19;20725;-76
2022/07/13 06:22:28;;;;;;;1.77;0.80;;;;;22.40;94821.00;;;;7395428;19;20136;-76
2022/07/13 06:25:03;;;;;;;3.47;0.90;;;;;22.50;94829.00;;;;7399606;19;20133;-75
2022/07/13 06:27:30;;;;;;;0.80;0.80;;;;;22.50;94824.00;;;;7401077;19;20538;-76
2022/07/13 06:29:58;;;;;;;2.15;0.85;;;;;22.70;94823.00;;;;7398541;19;20171;-75
2022/07/13 06:32:39;;;;;;;2.22;0.73;;;;;22.80;94823.00;;;;7393944;19;21084;-76
2022/07/13 06:35:07;;;;;;;1.52;0.70;;;;;22.80;94818.00;;;;7397605;19;20129;-75
2022/07/13 06:37:42;;;;;;;3.33;0.90;;;;;22.70;94816.00;;;;7397835;19;20168;-76
2022/07/13 06:40:13;;;;;;;0.80;0.80;;;;;22.90;94808.00;;;;7394225;19;20137;-76
2022/07/13 06:42:43;;;;;;;1.92;0.85;;;;;22.90;94813.00;;;;7392871;19;20157;-76
2022/07/13 06:45:18;;;;;;;2.83;0.82;;;;;22.90;94812.00;;;;7399613;19;20152;-75
2022/07/13 06:47:45;;;;;;;2.65;0.80;;;;;22.90;94816.00;;;;7397938;19;20144;-75
2022/07/13 06:50:13;;;;;;;1.00;0.77;;;;;23.00;94823.00;;;;7394037;19;20129;-76
2022/07/13 06:52:47;;;;;;;0.80;0.80;;;;;23.10;94822.00;;;;7397052;19;20503;-75
2022/07/13 06:55:15;;;;;;;1.15;0.80;;;;;23.20;94824.00;;;;7396977;19;20148;-75
2022/07/13 06:57:43;;;;;;;0.70;0.70;;;;;23.20;94822.00;;;;7399441;19;20575;-76
2022/07/13 07:00:19;;;;;;;1.23;0.77;;;;;23.20;94819.00;;;;7394086;19;20144;-75
2022/07/13 07:02:47;;;;;;;0.85;0.85;;;;;23.10;94819.00;;;;7390377;19;20719;-75
2022/07/13 07:05:15;;;;;;;1.98;0.75;;;;;23.20;94817.00;;;;7396378;19;20548;-75
2022/07/13 07:07:49;;;;;;;0.77;0.77;;;;;23.30;94808.00;;;;7396833;19;20478;-75
2022/07/13 07:10:16;;;;;;;1.13;0.93;;;;;23.30;94809.00;;;;7385845;19;20848;-76
2022/07/13 07:12:44;;;;;;;1.48;0.88;;;;;23.40;94805.00;;;;7392145;19;20547;-74
2022/07/13 07:15:19;;;;;;;2.60;0.93;;;;;23.50;94812.00;;;;7394382;19;20648;-75
2022/07/13 07:17:48;;;;;;;1.55;0.85;;;;;23.60;94802.00;;;;7397374;19;20117;-74
2022/07/13 07:20:17;;;;;;;1.20;0.90;;;;;23.80;94818.00;;;;7395318;19;20160;-76
2022/07/13 07:22:51;;;;;;;2.53;1.00;;;;;24.10;94821.00;;;;7394779;19;20492;-74
2022/07/13 07:25:22;;;;;;;1.58;0.90;;;;;24.10;94820.00;;;;7394140;19;20625;-75
2022/07/13 07:27:50;;;;;;;2.45;1.08;;;;;24.10;94823.00;;;;7395440;19;20137;-76
2022/07/13 07:30:24;;;;;;;0.77;0.77;;;;;24.00;94820.00;;;;7396077;19;20633;-76
2022/07/13 07:32:58;;;;;;;0.80;0.80;;;;;24.10;94815.00;;;;7391904;19;20668;-74
2022/07/13 07:35:33;;;;;;;0.90;0.90;;;;;24.00;94820.00;;;;7396176;19;20212;-75
2022/07/13 07:38:01;;;;;;;1.48;0.82;;;;;24.10;94822.00;;;;7396895;19;20129;-76
2022/07/13 07:40:28;;;;;;;3.05;0.80;;;;;24.30;94823.00;;;;7395405;19;20148;-74
2022/07/13 07:43:04;;;;;;;1.05;0.98;;;;;24.10;94816.00;;;;7393240;19;20650;-76
2022/07/13 07:45:32;;;;;;;0.80;0.80;;;;;24.10;94819.00;;;;7391648;19;20132;-77
2022/07/13 07:48:00;;;;;;;0.73;0.73;;;;;24.10;94805.00;;;;7397961;19;20485;-75
2022/07/13 07:50:34;;;;;;;1.88;0.90;;;;;24.00;94812.00;;;;7395366;19;20133;-75
2022/07/13 07:53:02;;;;;;;1.65;0.90;;;;;24.10;94807.00;;;;7396272;19;20129;-74
2022/07/13 07:55:29;;;;;;;3.53;1.00;;;;;24.10;94809.00;;;;7393773;19;20140;-75
2022/07/13 07:58:04;;;;;;;0.77;0.77;;;;;24.10;94819.00;;;;7395101;19;20156;-76
2022/07/13 08:00:34;;;;;;;0.90;0.90;;;;;24.30;94816.00;;;;7395228;19;20602;-76
2022/07/13 08:03:03;;;;;;;0.93;0.88;;;;;24.20;94824.00;;;;7393842;19;20144;-76
2022/07/13 08:05:37;;;;;;;1.02;0.93;;;;;24.20;94822.00;;;;7392977;19;20116;-75
2022/07/13 08:08:05;;;;;;;0.88;0.80;;;;;24.30;94817.00;;;;7392456;19;20152;-74
2022/07/13 08:10:33;;;;;;;2.05;0.68;;;;;24.30;94818.00;;;;7390142;19;20153;-75
2022/07/13 08:13:09;;;;;;;1.27;0.70;;;;;24.40;94810.00;;;;7396185;19;20132;-75
2022/07/13 08:15:37;;;;;;;1.38;0.90;;;;;24.80;94809.00;;;;7391482;19;20473;-75
2022/07/13 08:18:05;;;;;;;1.02;0.80;;;;;25.00;94812.00;;;;7389453;19;20162;-75
2022/07/13 08:20:59;;;;;;;1.55;0.82;;;;;25.00;94809.00;;;;7391256;19;20196;-74
2022/07/13 08:23:52;;;;;;;3.58;1.00;;;;;25.00;94815.00;;;;7388755;19;20910;-77
2022/07/13 08:26:27;;;;;;;1.00;0.80;;;;;25.00;94805.00;;;;7388809;19;20605;-74
2022/07/13 08:28:58;;;;;;;1.27;0.60;;;;;24.90;94820.00;;;;7389451;19;20883;-74
2022/07/13 08:31:26;;;;;;;5.40;1.10;;;;;24.80;94811.00;;;;7386103;19;20155;-74
2022/07/13 08:39:39;;;;;;;0.70;0.70;;;;;25.20;94806.00;;;;7393037;19;20137;-75
2022/07/13 08:42:07;;;;;;;3.30;0.77;;;;;25.40;94811.00;;;;7390524;19;20153;-76
2022/07/13 08:44:34;;;;;;;1.10;0.88;;;;;25.50;94812.00;;;;7392263;19;20149;-76
2022/07/13 08:47:10;;;;;;;1.35;1.00;;;;;25.80;94802.00;;;;7394735;19;20137;-75
2022/07/13 08:49:38;;;;;;;0.95;0.93;;;;;26.00;94799.00;;;;7392430;19;20128;-76
2022/07/13 08:52:06;;;;;;;2.30;0.85;;;;;26.30;94802.00;;;;7391174;19;20607;-76
2022/07/13 08:54:40;;;;;;;0.93;0.80;;;;;26.50;94807.00;;;;7394246;19;20168;-76
2022/07/13 08:57:08;;;;;;;0.80;0.80;;;;;26.70;94800.00;;;;7395159;19;20125;-74
2022/07/13 08:59:37;;;;;;;1.58;0.70;;;;;26.90;94798.00;;;;7391717;19;20577;-75
2022/07/13 09:02:11;;;;;;;1.58;0.90;;;;;27.10;94808.00;;;;7388718;19;20607;-74
2022/07/13 09:04:40;;;;;;;1.63;0.70;;;;;27.40;94801.00;;;;7393038;19;20152;-74
2022/07/13 09:07:11;;;;;;;1.42;0.80;;;;;27.80;94805.00;;;;7391044;19;20149;-75
2022/07/13 09:09:45;;;;;;;2.75;0.80;;;;;28.00;94806.00;;;;7391430;19;20157;-75
2022/07/13 09:12:32;;;;;;;4.25;1.13;;;;;27.70;94808.00;;;;7389756;19;20653;-76
2022/07/13 09:15:08;;;;;;;1.92;0.95;;;;;27.40;94811.00;;;;7388812;19;20138;-75
2022/07/13 09:17:43;;;;;;;1.38;0.82;;;;;27.30;94816.00;;;;7391299;19;20980;-74
2022/07/13 09:20:22;;;;;;;1.63;0.77;;;;;27.60;94805.00;;;;7390128;19;20141;-76
2022/07/13 09:23:01;;;;;;;3.80;0.90;;;;;27.70;94802.00;;;;7392676;19;20612;-74
2022/07/13 09:25:37;;;;;;;0.80;0.70;;;;;27.80;94811.00;;;;7388908;19;20156;-74
2022/07/13 09:28:16;;;;;;;1.35;1.00;;;;;28.10;94808.00;;;;7391731;19;20672;-77
2022/07/13 09:31:06;;;;;;;1.00;1.00;;;;;28.30;94801.00;;;;7392794;19;20133;-76
2022/07/13 09:33:44;;;;;;;0.70;0.70;;;;;28.40;94810.00;;;;7389953;19;20150;-77
2022/07/13 09:36:23;;;;;;;0.77;0.77;;;;;28.30;94811.00;;;;7390203;19;20172;-77
2022/07/13 09:38:57;;;;;;;1.52;0.63;;;;;28.40;94806.00;;;;7388653;19;20168;-76
2022/07/13 09:41:32;;;;;;;2.65;0.95;;;;;28.80;94808.00;;;;7389266;19;20128;-76
2022/07/13 09:47:06;;;;;;;1.10;0.82;;;;;28.90;94814.00;;;;7391051;19;20592;-75
2022/07/13 09:49:45;;;;;;;1.88;0.70;;;;;29.40;94823.00;;;;7390051;19;20729;-77
2022/07/13 09:52:19;;;;;;;2.63;0.90;;;;;29.70;94823.00;;;;7387357;19;20144;-76
2022/07/13 09:54:51;;;;;;;2.05;0.77;;;;;29.60;94820.00;;;;7393177;19;20174;-75
2022/07/13 09:57:22;;;;;;;1.50;0.70;;;;;29.70;94809.00;;;;7396056;19;20142;-75
2022/07/13 09:59:57;;;;;;;1.77;0.90;;;;;29.60;94812.00;;;;7397962;19;20606;-76
2022/07/13 10:02:26;;;;;;;2.05;0.80;;;;;29.70;94818.00;;;;7397462;19;20128;-76
2022/07/13 10:04:57;;;;;;;3.72;0.90;;;;;29.60;94815.00;;;;7398951;19;20159;-79
2022/07/13 10:07:33;;;;;;;1.35;0.80;;;;;29.70;94812.00;;;;7396921;19;20148;-74
2022/07/13 10:10:04;;;;;;;1.13;0.65;;;;;29.80;94825.00;;;;7397655;19;20612;-74
2022/07/13 10:12:42;;;;;;;0.77;0.77;;;;;29.10;94822.00;;;;7390340;19;20180;-76
2022/07/13 10:15:12;;;;;;;1.95;0.80;;;;;29.70;94810.00;;;;7394098;19;20144;-75
2022/07/13 10:17:49;;;;;;;1.27;0.85;;;;;29.80;94813.00;;;;7389864;19;20136;-76
2022/07/13 10:20:21;;;;;;;2.20;0.55;;;;;30.10;94819.00;;;;7387229;19;20181;-76
2022/07/13 10:22:57;;;;;;;0.93;0.93;;;;;29.90;94811.00;;;;7391215;19;20147;-76
2022/07/13 10:25:43;;;;;;;0.73;0.70;;;;;30.00;94821.00;;;;7391031;19;20144;-76
2022/07/13 10:28:19;;;;;;;1.05;0.60;;;;;30.30;94813.00;;;;7391820;19;20638;-76
2022/07/13 10:30:49;;;;;;;2.13;0.82;;;;;30.20;94809.00;;;;7393407;19;20248;-75
2022/07/13 10:33:22;;;;;;;1.33;0.60;;;;;30.40;94819.00;;;;7388183;19;20176;-73
2022/07/13 10:35:58;;;;;;;0.73;0.73;;;;;30.10;94807.00;;;;7390629;19;20196;-76
2022/07/13 10:38:29;;;;;;;2.35;0.60;;;;;30.10;94804.00;;;;7393083;19;20161;-75
2022/07/13 10:41:23;;;;;;;0.70;0.70;;;;;30.40;94805.00;;;;7394700;19;20136;-76
2022/07/13 10:44:01;;;;;;;0.60;0.60;;;;;30.90;94809.00;;;;7389566;19;20137;-75
2022/07/13 10:46:50;;;;;;;0.70;0.70;;;;;31.60;94808.00;;;;7394258;19;20132;-75
2022/07/13 10:49:35;;;;;;;0.60;0.60;;;;;30.90;94801.00;;;;7394266;19;20174;-76
2022/07/13 10:52:21;;;;;;;1.35;0.70;;;;;31.40;94813.00;;;;7392279;19;20759;-75
2022/07/13 10:55:11;;;;;;;1.85;0.70;;;;;31.80;94805.00;;;;7392962;19;20148;-75
2022/07/13 10:57:46;;;;;;;1.42;0.80;;;;;31.90;94800.00;;;;7391501;19;20228;-74
2022/07/13 11:00:23;;;;;;;0.75;0.75;;;;;32.20;94790.00;;;;7390101;19;20488;-77
2022/07/13 11:03:03;;;;;;;3.97;0.70;;;;;32.50;94792.00;;;;7391152;19;20748;-75
2022/07/13 11:05:35;;;;;;;0.70;0.70;;;;;32.40;94790.00;;;;7390001;19;20537;-75
2022/07/13 11:08:16;;;;;;;1.02;0.93;;;;;32.50;94794.00;;;;7390759;19;20136;-76
2022/07/13 11:10:53;;;;;;;1.17;0.95;;;;;32.30;94788.00;;;;7390075;19;20677;-75
2022/07/13 11:13:28;;;;;;;2.83;0.88;;;;;32.60;94788.00;;;;7388543;19;20168;-76
2022/07/13 11:15:56;;;;;;;1.20;0.73;;;;;32.40;94785.00;;;;7389358;19;20144;-75
2022/07/13 11:18:30;;;;;;;0.73;0.73;;;;;32.20;94791.00;;;;7389435;19;20152;-77
2022/07/13 11:21:10;;;;;;;0.70;0.70;;;;;32.20;94778.00;;;;7390283;19;20148;-77
2022/07/13 11:26:55;;;;;;;1.85;0.85;;;;;32.70;94789.00;;;;7392525;19;20144;-76
2022/07/13 11:29:26;;;;;;;1.05;0.77;;;;;32.30;94782.00;;;;7388536;19;20610;-74
2022/07/13 11:32:09;;;;;;;1.38;0.80;;;;;32.30;94775.00;;;;7387032;19;20502;-75
2022/07/13 11:34:46;;;;;;;0.75;0.75;;;;;32.60;94772.00;;;;7390295;19;20752;-76
2022/07/13 11:37:26;;;;;;;1.48;0.70;;;;;32.50;94770.00;;;;7391438;19;20520;-75
2022/07/13 11:39:58;;;;;;;1.13;0.70;;;;;32.30;94775.00;;;;7390023;19;20509;-77
2022/07/13 11:42:34;;;;;;;1.15;0.70;;;;;31.70;94769.00;;;;7389242;19;20674;-75
2022/07/13 11:45:02;;;;;;;0.80;0.80;;;;;31.00;94760.00;;;;7390744;19;20145;-74
2022/07/13 11:47:31;;;;;;;1.27;1.10;;;;;30.50;94766.00;;;;7385281;19;20132;-76
2022/07/13 11:50:06;;;;;;;2.95;1.10;;;;;30.90;94762.00;;;;7387163;19;20725;-74
2022/07/13 11:52:44;;;;;;;1.10;1.00;;;;;31.60;94757.00;;;;7388894;19;20152;-74
2022/07/13 11:55:19;;;;;;;0.75;0.75;;;;;32.00;94756.00;;;;7391791;19;20921;-75
2022/07/13 11:57:47;;;;;;;1.17;1.00;;;;;32.10;94752.00;;;;7386940;19;20141;-75
2022/07/13 12:00:17;;;;;;;1.15;1.05;;;;;31.90;94739.00;;;;7387132;19;20468;-74
2022/07/13 12:02:52;;;;;;;1.83;1.30;;;;;31.90;94747.00;;;;7388373;19;20152;-76
2022/07/13 12:05:28;;;;;;;1.67;1.02;;;;;31.90;94751.00;;;;7385918;19;20616;-73
2022/07/13 12:08:06;;;;;;;2.03;1.00;;;;;32.00;94751.00;;;;7387255;19;21013;-74
2022/07/13 12:10:35;;;;;;;5.78;1.20;;;;;32.50;94743.00;;;;7387977;19;20148;-75
2022/07/13 12:13:09;;;;;;;1.08;0.98;;;;;32.90;94744.00;;;;7391575;19;20132;-74
2022/07/13 12:15:38;;;;;;;3.35;1.08;;;;;33.40;94738.00;;;;7387090;19;20155;-76
2022/07/13 12:18:10;;;;;;;1.50;0.80;;;;;34.10;94744.00;;;;7383215;19;20227;-74
2022/07/13 12:20:51;;;;;;;0.90;0.90;;;;;34.10;94734.00;;;;7388398;19;20161;-76
2022/07/13 12:23:19;;;;;;;1.15;1.00;;;;;34.40;94732.00;;;;7386286;19;20160;-75
2022/07/13 12:26:06;;;;;;;0.80;0.80;;;;;33.90;94724.00;;;;7389013;19;20136;-76
2022/07/13 12:28:38;;;;;;;0.75;0.75;;;;;34.40;94720.00;;;;7389448;19;20129;-76
2022/07/13 12:31:12;;;;;;;1.00;1.00;;;;;34.70;94723.00;;;;7390414;19;20132;-75
2022/07/13 12:33:50;;;;;;;0.80;0.80;;;;;34.90;94715.00;;;;7384048;19;20180;-76
2022/07/13 12:36:25;;;;;;;0.80;0.80;;;;;35.30;94728.00;;;;7388062;19;20124;-76
2022/07/13 12:39:00;;;;;;;1.35;1.00;;;;;35.00;94710.00;;;;7390981;19;20156;-76
2022/07/13 12:41:40;;;;;;;1.33;1.00;;;;;34.30;94719.00;;;;7387653;19;20199;-77
2022/07/13 12:44:09;;;;;;;3.80;1.00;;;;;34.20;94719.00;;;;7384881;19;20148;-75
2022/07/13 12:46:50;;;;;;;2.00;0.70;;;;;34.80;94723.00;;;;7387018;19;20140;-76
2022/07/13 12:49:27;;;;;;;0.80;0.80;;;;;34.60;94713.00;;;;7386989;19;20124;-77
2022/07/13 12:52:09;;;;;;;1.00;1.00;;;;;34.20;94721.00;;;;7385308;19;20650;-75
2022/07/13 12:54:46;;;;;;;1.00;0.90;;;;;33.90;94714.00;;;;7390845;19;20132;-76
2022/07/13 12:57:25;;;;;;;2.28;1.10;;;;;33.70;94714.00;;;;7387289;19;20136;-75